RYR6YN LIEE-LMML
Flight info
| Callsign | RYR6YN |
|---|---|
| Flight time | N/A |
| Altitude | 19000 |
| Route | CAR M732 TIVUK/N0440F350 DCT SENTI DCT ROBIM M732 GZO |
| Aircraft | B738/M-SDE2E3FGHIRWXY/LB1 |
Departure
| Time | 2026-04-28 15:23 |
|---|---|
| Airport | Cagliari Elmas Airport (LIEE) |
Arrival
| Time | N/A |
|---|---|
| Airport | Malta International Airport (LMML) |
| Time | Latitude | Longitude | Altitude | Speed | Heading |
|---|---|---|---|---|---|
| 2026-04-28 14:40 | 39.25238 | 9.05950 | 16 ft | 0 kts | 320° |
| 2026-04-28 15:07 | 39.25230 | 9.05958 | 16 ft | 3 kts | 320° |
| 2026-04-28 15:07 | 39.25216 | 9.05974 | 24 ft | 3 kts | 319° |
| 2026-04-28 15:08 | 39.25202 | 9.05990 | 16 ft | 3 kts | 320° |
| 2026-04-28 15:08 | 39.25194 | 9.05998 | 16 ft | 0 kts | 320° |
| 2026-04-28 15:11 | 39.25195 | 9.05997 | 16 ft | 0 kts | 320° |
| 2026-04-28 15:12 | 39.25198 | 9.05973 | 17 ft | 6 kts | 250° |
| 2026-04-28 15:12 | 39.25177 | 9.05904 | 18 ft | 10 kts | 253° |
| 2026-04-28 15:12 | 39.25147 | 9.05815 | 16 ft | 12 kts | 244° |
| 2026-04-28 15:12 | 39.25146 | 9.05713 | 17 ft | 13 kts | 310° |
| 2026-04-28 15:13 | 39.25208 | 9.05636 | 16 ft | 12 kts | 315° |
| 2026-04-28 15:13 | 39.25271 | 9.05565 | 16 ft | 12 kts | 320° |
| 2026-04-28 15:13 | 39.25333 | 9.05497 | 16 ft | 12 kts | 320° |
| 2026-04-28 15:13 | 39.25394 | 9.05431 | 16 ft | 11 kts | 320° |
| 2026-04-28 15:14 | 39.25453 | 9.05367 | 16 ft | 11 kts | 316° |
| 2026-04-28 15:14 | 39.25504 | 9.05295 | 17 ft | 11 kts | 315° |
| 2026-04-28 15:14 | 39.25557 | 9.05232 | 17 ft | 10 kts | 318° |
| 2026-04-28 15:14 | 39.25610 | 9.05171 | 17 ft | 10 kts | 318° |
| 2026-04-28 15:15 | 39.25662 | 9.05112 | 17 ft | 10 kts | 318° |
| 2026-04-28 15:15 | 39.25695 | 9.05074 | 17 ft | 10 kts | 318° |
| 2026-04-28 15:15 | 39.25760 | 9.04998 | 17 ft | 9 kts | 318° |
| 2026-04-28 15:15 | 39.25807 | 9.04944 | 18 ft | 9 kts | 318° |
| 2026-04-28 15:16 | 39.25853 | 9.04891 | 18 ft | 9 kts | 318° |
| 2026-04-28 15:16 | 39.25898 | 9.04839 | 18 ft | 9 kts | 318° |
| 2026-04-28 15:16 | 39.25941 | 9.04789 | 18 ft | 8 kts | 318° |
| 2026-04-28 15:16 | 39.25983 | 9.04740 | 18 ft | 8 kts | 317° |
| 2026-04-28 15:17 | 39.26023 | 9.04692 | 18 ft | 8 kts | 317° |
| 2026-04-28 15:17 | 39.26063 | 9.04646 | 18 ft | 8 kts | 317° |
| 2026-04-28 15:17 | 39.26101 | 9.04602 | 18 ft | 7 kts | 317° |
| 2026-04-28 15:17 | 39.26123 | 9.04547 | 18 ft | 7 kts | 278° |
| 2026-04-28 15:18 | 39.26130 | 9.04486 | 18 ft | 7 kts | 277° |
| 2026-04-28 15:18 | 39.26120 | 9.04427 | 18 ft | 7 kts | 236° |
| 2026-04-28 15:18 | 39.26087 | 9.04386 | 18 ft | 7 kts | 212° |
| 2026-04-28 15:18 | 39.26044 | 9.04395 | 18 ft | 7 kts | 142° |
| 2026-04-28 15:19 | 39.26019 | 9.04422 | 17 ft | 0 kts | 139° |
| 2026-04-28 15:22 | 39.25917 | 9.04537 | 17 ft | 48 kts | 139° |
| 2026-04-28 15:22 | 39.25518 | 9.05000 | 17 ft | 105 kts | 137° |
| 2026-04-28 15:22 | 39.24844 | 9.05768 | 22 ft | 151 kts | 142° |
| 2026-04-28 15:22 | 39.23980 | 9.06774 | 115 ft | 182 kts | 140° |
| 2026-04-28 15:23 | 39.23096 | 9.07835 | 910 ft | 167 kts | 140° |
| 2026-04-28 15:23 | 39.22131 | 9.08825 | 1154 ft | 190 kts | 142° |
| 2026-04-28 15:23 | 39.21135 | 9.09963 | 1716 ft | 190 kts | 134° |
| 2026-04-28 15:23 | 39.20159 | 9.11152 | 2154 ft | 201 kts | 135° |
| 2026-04-28 15:24 | 39.19086 | 9.12414 | 2419 ft | 213 kts | 136° |
| 2026-04-28 15:24 | 39.17983 | 9.13697 | 2906 ft | 214 kts | 137° |
| 2026-04-28 15:24 | 39.16877 | 9.14983 | 3408 ft | 217 kts | 138° |
| 2026-04-28 15:24 | 39.15695 | 9.16353 | 3580 ft | 240 kts | 138° |
| 2026-04-28 15:25 | 39.14409 | 9.17840 | 3981 ft | 253 kts | 139° |
| 2026-04-28 15:25 | 39.13090 | 9.19362 | 4600 ft | 257 kts | 139° |
| 2026-04-28 15:25 | 39.11750 | 9.20908 | 5223 ft | 260 kts | 140° |
| 2026-04-28 15:25 | 39.10389 | 9.22479 | 5816 ft | 265 kts | 140° |
| 2026-04-28 15:26 | 39.09016 | 9.24060 | 6331 ft | 273 kts | 140° |
| 2026-04-28 15:26 | 39.07617 | 9.25672 | 6963 ft | 274 kts | 140° |
| 2026-04-28 15:26 | 39.06207 | 9.27295 | 7517 ft | 279 kts | 140° |
| 2026-04-28 15:26 | 39.04750 | 9.28970 | 8089 ft | 282 kts | 140° |
| 2026-04-28 15:27 | 39.03276 | 9.30664 | 8688 ft | 285 kts | 140° |
| 2026-04-28 15:27 | 39.02011 | 9.32647 | 9238 ft | 293 kts | 116° |
| 2026-04-28 15:27 | 39.01589 | 9.35222 | 9794 ft | 300 kts | 85° |
| 2026-04-28 15:27 | 39.02235 | 9.37772 | 10310 ft | 306 kts | 61° |
| 2026-04-28 15:28 | 39.03495 | 9.40062 | 10472 ft | 324 kts | 47° |
| 2026-04-28 15:28 | 39.05070 | 9.42240 | 10651 ft | 341 kts | 46° |
| 2026-04-28 15:28 | 39.06704 | 9.44507 | 11069 ft | 349 kts | 47° |
| 2026-04-28 15:28 | 39.08267 | 9.46924 | 11550 ft | 355 kts | 59° |
| 2026-04-28 15:29 | 39.09108 | 9.49888 | 12178 ft | 355 kts | 82° |
| 2026-04-28 15:29 | 39.09017 | 9.53058 | 12698 ft | 358 kts | 105° |
| 2026-04-28 15:29 | 39.08033 | 9.55991 | 13187 ft | 359 kts | 126° |
| 2026-04-28 15:29 | 39.06526 | 9.58562 | 13759 ft | 361 kts | 130° |
| 2026-04-28 15:30 | 39.04942 | 9.61097 | 14244 ft | 365 kts | 130° |
| 2026-04-28 15:30 | 39.03341 | 9.63646 | 14728 ft | 368 kts | 130° |
| 2026-04-28 15:30 | 39.01741 | 9.66230 | 15245 ft | 371 kts | 129° |
| 2026-04-28 15:30 | 39.00141 | 9.68846 | 15750 ft | 373 kts | 129° |
| 2026-04-28 15:31 | 38.98536 | 9.71480 | 16252 ft | 376 kts | 129° |
| 2026-04-28 15:31 | 38.96918 | 9.74132 | 16741 ft | 379 kts | 129° |
| 2026-04-28 15:31 | 38.95272 | 9.76792 | 17217 ft | 382 kts | 130° |
| 2026-04-28 15:31 | 38.93608 | 9.79467 | 17698 ft | 385 kts | 130° |
| 2026-04-28 15:32 | 38.91953 | 9.82124 | 18161 ft | 388 kts | 130° |
| 2026-04-28 15:32 | 38.90812 | 9.83958 | 18452 ft | 390 kts | 130° |
| 2026-04-28 15:32 | 38.88562 | 9.87575 | 19000 ft | 393 kts | 129° |
| 2026-04-28 15:32 | 38.86851 | 9.90324 | 19415 ft | 395 kts | 129° |
| 2026-04-28 15:33 | 38.85132 | 9.93084 | 19829 ft | 398 kts | 129° |
| 2026-04-28 15:33 | 38.83963 | 9.94965 | 20108 ft | 399 kts | 129° |
| 2026-04-28 15:33 | 38.81670 | 9.98674 | 20641 ft | 403 kts | 129° |
| 2026-04-28 15:33 | 38.79924 | 10.01502 | 21035 ft | 405 kts | 129° |
| 2026-04-28 15:34 | 38.78766 | 10.03380 | 21297 ft | 407 kts | 129° |
| 2026-04-28 15:34 | 38.77005 | 10.06231 | 21681 ft | 409 kts | 129° |
| 2026-04-28 15:34 | 38.75235 | 10.09094 | 22059 ft | 412 kts | 129° |
| 2026-04-28 15:34 | 38.73452 | 10.11975 | 22438 ft | 414 kts | 129° |
| 2026-04-28 15:35 | 38.71653 | 10.14876 | 22813 ft | 416 kts | 129° |
| 2026-04-28 15:35 | 38.68034 | 10.20708 | 23563 ft | 420 kts | 129° |
| 2026-04-28 15:35 | 38.66212 | 10.23640 | 23861 ft | 423 kts | 129° |
| 2026-04-28 15:36 | 38.64374 | 10.26594 | 24144 ft | 425 kts | 129° |
| 2026-04-28 15:36 | 38.62525 | 10.29563 | 24440 ft | 427 kts | 129° |
| 2026-04-28 15:36 | 38.60667 | 10.32543 | 24723 ft | 430 kts | 130° |
| 2026-04-28 15:36 | 38.58799 | 10.35537 | 25006 ft | 432 kts | 130° |
| 2026-04-28 15:37 | 38.56920 | 10.38546 | 25281 ft | 434 kts | 130° |
| 2026-04-28 15:37 | 38.55033 | 10.41565 | 25569 ft | 436 kts | 130° |
| 2026-04-28 15:37 | 38.53134 | 10.44602 | 25826 ft | 438 kts | 130° |
| 2026-04-28 15:37 | 38.51224 | 10.47651 | 26091 ft | 440 kts | 130° |
| 2026-04-28 15:38 | 38.49307 | 10.50710 | 26344 ft | 443 kts | 130° |
| 2026-04-28 15:38 | 38.47378 | 10.53783 | 26600 ft | 445 kts | 130° |
| 2026-04-28 15:38 | 38.45441 | 10.56869 | 26853 ft | 447 kts | 130° |
| 2026-04-28 15:38 | 38.43494 | 10.59966 | 27097 ft | 449 kts | 130° |
| 2026-04-28 15:39 | 38.41532 | 10.63084 | 27327 ft | 451 kts | 130° |
| 2026-04-28 15:39 | 38.39561 | 10.66213 | 27553 ft | 454 kts | 131° |
| 2026-04-28 15:39 | 38.37609 | 10.69309 | 27787 ft | 455 kts | 131° |
| 2026-04-28 15:39 | 38.35620 | 10.72462 | 28009 ft | 458 kts | 131° |
| 2026-04-28 15:40 | 38.33619 | 10.75629 | 28231 ft | 460 kts | 131° |
| 2026-04-28 15:40 | 38.31609 | 10.78808 | 28440 ft | 462 kts | 131° |
| 2026-04-28 15:40 | 38.29587 | 10.82003 | 28657 ft | 464 kts | 131° |
| 2026-04-28 15:40 | 38.27559 | 10.85204 | 28860 ft | 466 kts | 131° |
| 2026-04-28 15:41 | 38.25522 | 10.88416 | 29112 ft | 467 kts | 131° |
| 2026-04-28 15:41 | 38.23485 | 10.91627 | 29428 ft | 466 kts | 131° |
| 2026-04-28 15:41 | 38.21447 | 10.94835 | 29740 ft | 465 kts | 132° |
| 2026-04-28 15:41 | 38.19413 | 10.98033 | 29984 ft | 466 kts | 132° |
| 2026-04-28 15:42 | 38.17370 | 11.01242 | 30194 ft | 467 kts | 132° |
| 2026-04-28 15:42 | 38.15322 | 11.04457 | 30416 ft | 467 kts | 132° |
| 2026-04-28 15:42 | 38.13279 | 11.07659 | 30654 ft | 467 kts | 133° |
| 2026-04-28 15:42 | 38.11233 | 11.10863 | 30865 ft | 467 kts | 133° |
| 2026-04-28 15:43 | 38.09183 | 11.14070 | 31053 ft | 468 kts | 133° |
| 2026-04-28 15:43 | 38.07132 | 11.17276 | 31253 ft | 468 kts | 133° |
| 2026-04-28 15:43 | 38.05083 | 11.20475 | 31478 ft | 467 kts | 133° |
| 2026-04-28 15:43 | 38.03032 | 11.23676 | 31683 ft | 467 kts | 133° |
| 2026-04-28 15:44 | 38.00980 | 11.26874 | 31868 ft | 468 kts | 133° |
| 2026-04-28 15:44 | 37.98926 | 11.30071 | 32067 ft | 468 kts | 134° |
| 2026-04-28 15:44 | 37.96874 | 11.33263 | 32301 ft | 467 kts | 134° |
| 2026-04-28 15:44 | 37.94827 | 11.36445 | 32530 ft | 466 kts | 134° |
| 2026-04-28 15:45 | 37.92776 | 11.39629 | 32709 ft | 466 kts | 134° |
| 2026-04-28 15:45 | 37.90728 | 11.42804 | 32864 ft | 466 kts | 134° |
| 2026-04-28 15:45 | 37.88674 | 11.45985 | 33012 ft | 467 kts | 134° |
| 2026-04-28 15:45 | 37.86614 | 11.49173 | 33010 ft | 469 kts | 134° |
| 2026-04-28 15:46 | 37.82489 | 11.55549 | 33020 ft | 467 kts | 134° |
| 2026-04-28 15:46 | 37.78381 | 11.61888 | 33024 ft | 465 kts | 134° |
| 2026-04-28 15:47 | 37.74278 | 11.68205 | 33021 ft | 464 kts | 134° |
| 2026-04-28 15:47 | 37.70209 | 11.74457 | 33028 ft | 463 kts | 135° |
| 2026-04-28 15:48 | 37.66112 | 11.80739 | 33032 ft | 464 kts | 135° |
| 2026-04-28 15:48 | 37.62003 | 11.87027 | 33031 ft | 465 kts | 135° |
| 2026-04-28 15:49 | 37.57883 | 11.93321 | 33028 ft | 466 kts | 135° |
| 2026-04-28 15:49 | 37.53741 | 11.99637 | 33033 ft | 468 kts | 135° |
| 2026-04-28 15:50 | 37.49580 | 12.05969 | 33034 ft | 470 kts | 135° |
| 2026-04-28 15:50 | 37.45419 | 12.12294 | 33004 ft | 463 kts | 135° |
| 2026-04-28 15:51 | 37.43395 | 12.15375 | 33007 ft | 451 kts | 135° |
| 2026-04-28 15:51 | 37.41403 | 12.18398 | 33039 ft | 448 kts | 135° |
| 2026-04-28 15:51 | 37.37429 | 12.24406 | 33027 ft | 446 kts | 135° |
| 2026-04-28 15:52 | 37.33549 | 12.30274 | 32999 ft | 423 kts | 136° |
| 2026-04-28 15:52 | 37.31699 | 12.33072 | 33004 ft | 412 kts | 136° |
| 2026-04-28 15:52 | 37.29869 | 12.35828 | 33040 ft | 412 kts | 136° |
| 2026-04-28 15:53 | 37.26882 | 12.40310 | 33051 ft | 416 kts | 136° |